createdAt,value
2018-01-08T00:00:56.697Z,8.40
2018-01-08T00:03:23.517Z,10.88
2018-01-08T00:05:50.349Z,9.32
2018-01-08T00:08:18.169Z,10.80
2018-01-08T00:10:45.059Z,8.82
2018-01-08T00:13:11.897Z,10.32
2018-01-08T00:15:38.792Z,10.57
2018-01-08T00:18:05.765Z,10.00
2018-01-08T00:20:32.615Z,9.05
2018-01-08T00:22:59.420Z,11.35
2018-01-08T00:25:26.319Z,10.50
2018-01-08T00:27:53.828Z,10.05
2018-01-08T00:30:20.617Z,9.55
2018-01-08T00:32:47.388Z,8.52
2018-01-08T00:35:14.147Z,10.05
2018-01-08T00:37:40.948Z,9.82
2018-01-08T00:40:08.497Z,11.45
2018-01-08T00:42:35.255Z,10.07
2018-01-08T00:45:02.074Z,9.45
2018-01-08T00:47:28.858Z,8.75
2018-01-08T00:49:55.646Z,10.52
2018-01-08T00:52:22.454Z,10.13
2018-01-08T00:54:49.203Z,9.98
2018-01-08T00:57:16.014Z,12.10
2018-01-08T00:59:43.121Z,10.60
2018-01-08T01:02:09.933Z,9.60
2018-01-08T01:04:36.717Z,10.18
2018-01-08T01:07:03.462Z,10.00
2018-01-08T01:09:30.298Z,9.32
2018-01-08T01:11:57.140Z,8.90
2018-01-08T01:14:23.985Z,10.85
2018-01-08T01:16:50.848Z,9.93
2018-01-08T01:19:17.639Z,10.38
2018-01-08T01:21:44.411Z,10.77
2018-01-08T01:24:11.236Z,11.52
2018-01-08T01:26:38.019Z,10.98
2018-01-08T01:29:04.966Z,11.32
2018-01-08T01:31:31.878Z,12.18
2018-01-08T01:33:58.680Z,12.60
2018-01-08T01:36:25.577Z,10.10
2018-01-08T01:38:52.374Z,11.88
2018-01-08T01:41:25.260Z,11.98
2018-01-08T01:43:52.119Z,11.90
2018-01-08T01:46:18.891Z,12.35
2018-01-08T01:48:45.690Z,12.05
2018-01-08T01:51:12.514Z,10.07
2018-01-08T01:53:40.016Z,13.40
2018-01-08T01:56:06.807Z,12.85
2018-01-08T01:58:33.596Z,9.15
2018-01-08T02:01:00.375Z,11.43
2018-01-08T02:03:27.943Z,13.82
2018-01-08T02:05:55.478Z,13.85
2018-01-08T02:08:22.286Z,12.37
2018-01-08T02:10:50.242Z,11.07
2018-01-08T02:13:17.092Z,16.20
2018-01-08T02:15:43.936Z,13.05
2018-01-08T02:18:11.188Z,9.50
2018-01-08T02:20:37.990Z,10.95
2018-01-08T02:23:04.803Z,14.50
2018-01-08T02:25:31.617Z,11.68
2018-01-08T02:27:58.383Z,11.50
2018-01-08T02:30:25.258Z,12.02
2018-01-08T02:32:52.014Z,12.82
2018-01-08T02:35:18.803Z,12.32
2018-01-08T02:37:45.572Z,14.52
2018-01-08T02:40:12.344Z,13.15
2018-01-08T02:42:39.138Z,11.02
2018-01-08T02:45:05.961Z,15.00
2018-01-08T02:47:32.807Z,12.07
2018-01-08T02:50:00.162Z,11.98
2018-01-08T02:52:27.736Z,11.80
2018-01-08T02:54:55.264Z,12.27
2018-01-08T02:57:22.054Z,12.63
2018-01-08T02:59:48.845Z,11.48
2018-01-08T03:02:16.366Z,15.52
2018-01-08T03:04:43.615Z,12.95
2018-01-08T03:07:10.460Z,12.65
2018-01-08T03:09:37.236Z,13.62
2018-01-08T03:12:04.047Z,12.68
2018-01-08T03:14:30.809Z,13.68
2018-01-08T03:16:57.608Z,12.10
2018-01-08T03:19:24.409Z,14.40
2018-01-08T03:21:51.198Z,13.80
2018-01-08T03:24:17.977Z,15.48
2018-01-08T03:26:44.798Z,12.15
2018-01-08T03:29:11.633Z,11.10
2018-01-08T03:31:38.402Z,12.68
2018-01-08T03:34:05.213Z,13.68
2018-01-08T03:36:32.780Z,12.05
2018-01-08T03:39:00.332Z,11.80
2018-01-08T03:41:27.114Z,13.68
2018-01-08T03:43:54.635Z,12.80
2018-01-08T03:46:21.511Z,12.32
2018-01-08T03:48:49.169Z,14.80
2018-01-08T03:51:15.982Z,14.07
2018-01-08T03:53:42.758Z,14.77
2018-01-08T03:56:10.297Z,13.45
2018-01-08T03:58:37.076Z,12.13
2018-01-08T04:01:03.838Z,15.35
2018-01-08T04:03:30.627Z,13.30
2018-01-08T04:05:57.424Z,15.60
2018-01-08T04:08:24.264Z,13.00
2018-01-08T04:10:51.024Z,14.52
2018-01-08T04:13:17.858Z,16.00
2018-01-08T04:15:45.379Z,16.45
2018-01-08T04:18:12.359Z,14.73
2018-01-08T04:20:39.235Z,14.02
2018-01-08T04:23:06.105Z,16.75
2018-01-08T04:25:32.947Z,12.52
2018-01-08T04:27:59.774Z,11.73
2018-01-08T04:30:26.618Z,14.30
2018-01-08T04:32:53.494Z,16.27
2018-01-08T04:35:20.277Z,14.73
2018-01-08T04:37:47.161Z,13.52
2018-01-08T04:40:14.062Z,13.90
2018-01-08T04:42:40.907Z,13.32
2018-01-08T04:45:08.529Z,13.23
2018-01-08T04:47:35.411Z,13.60
2018-01-08T04:50:02.308Z,13.50
2018-01-08T04:52:29.883Z,13.02
2018-01-08T04:54:57.552Z,14.48
2018-01-08T04:57:25.158Z,13.62
2018-01-08T04:59:52.141Z,17.48
2018-01-08T05:02:18.966Z,13.35
2018-01-08T05:04:45.762Z,17.17
2018-01-08T05:07:12.617Z,15.63
2018-01-08T05:09:39.413Z,18.83
2018-01-08T05:12:06.252Z,10.02
2018-01-08T05:14:33.073Z,14.68
2018-01-08T05:16:59.833Z,14.85
2018-01-08T05:19:27.424Z,16.30
2018-01-08T05:21:54.221Z,13.60
2018-01-08T05:24:21.868Z,14.45
2018-01-08T05:26:48.640Z,15.30
2018-01-08T05:29:15.443Z,13.93
2018-01-08T05:31:42.250Z,16.98
2018-01-08T05:34:09.066Z,18.20
2018-01-08T05:36:35.902Z,14.45
2018-01-08T05:39:02.861Z,14.95
2018-01-08T05:41:29.679Z,14.10
2018-01-08T05:43:56.512Z,16.77
2018-01-08T05:46:23.295Z,15.25
2018-01-08T05:48:50.817Z,18.33
2018-01-08T05:51:17.667Z,15.18
2018-01-08T05:53:44.503Z,17.05
2018-01-08T05:56:12.004Z,16.30
2018-01-08T05:58:39.069Z,15.10
2018-01-08T06:01:06.137Z,12.18
2018-01-08T06:03:37.996Z,14.48
2018-01-08T06:06:04.858Z,23.42
2018-01-08T06:08:31.649Z,15.40
2018-01-08T06:10:59.170Z,17.17
2018-01-08T06:13:26.721Z,18.23
2018-01-08T06:15:53.981Z,15.68
2018-01-08T06:18:21.318Z,16.33
2018-01-08T06:20:48.131Z,13.90
2018-01-08T06:23:14.938Z,15.73
2018-01-08T06:25:41.723Z,14.32
2018-01-08T06:28:08.476Z,18.60
2018-01-08T06:30:35.314Z,16.67
2018-01-08T06:33:02.128Z,15.70
2018-01-08T06:35:28.913Z,16.75
2018-01-08T06:37:56.461Z,12.93
2018-01-08T06:40:23.273Z,14.80
2018-01-08T06:42:50.038Z,13.38
2018-01-08T06:45:16.816Z,16.35
2018-01-08T06:47:44.351Z,13.75
2018-01-08T06:50:12.636Z,16.37
2018-01-08T06:52:39.428Z,15.55
2018-01-08T06:55:06.219Z,18.23
2018-01-08T06:57:32.994Z,15.50
2018-01-08T06:59:59.814Z,14.23
2018-01-08T07:02:26.656Z,15.55
2018-01-08T07:04:53.440Z,14.55
2018-01-08T07:07:20.227Z,13.35
2018-01-08T07:09:48.735Z,19.52
2018-01-08T07:12:15.486Z,20.75
2018-01-08T07:14:42.240Z,15.68
2018-01-08T07:17:09.048Z,20.27
2018-01-08T07:19:36.595Z,17.52
2018-01-08T07:22:03.398Z,18.15
2018-01-08T07:24:30.203Z,18.40
2018-01-08T07:26:57.003Z,17.77
2018-01-08T07:29:24.535Z,15.88
2018-01-08T07:31:51.363Z,13.45
2018-01-08T07:34:18.134Z,14.90
2018-01-08T07:36:44.902Z,16.90
2018-01-08T07:39:11.744Z,19.98
2018-01-08T07:41:38.572Z,16.75
2018-01-08T07:44:05.421Z,19.87
2018-01-08T07:46:32.173Z,18.70
2018-01-08T07:48:58.994Z,18.70
2018-01-08T07:51:25.796Z,14.60
2018-01-08T07:53:52.560Z,16.92
2018-01-08T07:56:19.323Z,15.98
2018-01-08T07:58:46.106Z,17.42
2018-01-08T08:01:13.631Z,18.05
2018-01-08T08:03:40.420Z,18.23
2018-01-08T08:06:08.009Z,19.55
2018-01-08T08:08:35.524Z,19.75
2018-01-08T08:11:02.328Z,19.30
2018-01-08T08:13:29.114Z,17.50
2018-01-08T08:15:56.623Z,18.17
2018-01-08T08:18:23.407Z,17.95
2018-01-08T08:20:50.196Z,17.20
2018-01-08T08:23:17.740Z,16.85
2018-01-08T08:25:44.595Z,21.25
2018-01-08T08:28:11.384Z,19.52
2018-01-08T08:30:38.186Z,16.42
2018-01-08T08:33:04.982Z,17.45
2018-01-08T08:35:31.762Z,21.23
2018-01-08T08:37:58.544Z,17.83
2018-01-08T08:40:25.289Z,14.82
2018-01-08T08:42:52.058Z,17.15
2018-01-08T08:45:19.601Z,18.33
2018-01-08T08:47:46.400Z,17.42
2018-01-08T08:50:13.933Z,19.17
2018-01-08T08:52:40.716Z,17.25
2018-01-08T08:55:07.533Z,15.65
2018-01-08T08:57:34.290Z,15.52
2018-01-08T09:00:01.071Z,17.25
2018-01-08T09:02:27.861Z,16.17
2018-01-08T09:04:54.652Z,14.00
2018-01-08T09:07:21.439Z,15.93
2018-01-08T09:09:48.349Z,15.45
2018-01-08T09:12:15.924Z,17.27
2018-01-08T09:14:42.680Z,17.42
2018-01-08T09:17:09.450Z,14.35
2018-01-08T09:19:36.988Z,14.50
2018-01-08T09:22:03.780Z,14.40
2018-01-08T09:24:30.577Z,15.60
2018-01-08T09:26:57.349Z,15.63
2018-01-08T09:29:24.180Z,18.50
2018-01-08T09:31:51.012Z,16.65
2018-01-08T09:34:17.804Z,14.90
2018-01-08T09:36:44.587Z,15.05
2018-01-08T09:39:11.461Z,16.00
2018-01-08T09:41:38.282Z,20.48
2018-01-08T09:44:05.066Z,15.88
2018-01-08T09:46:31.827Z,17.15
2018-01-08T09:48:59.336Z,17.20
2018-01-08T09:51:26.151Z,14.23
2018-01-08T09:53:52.894Z,16.25
2018-01-08T09:56:20.409Z,17.12
2018-01-08T09:58:47.188Z,16.95
2018-01-08T10:01:13.976Z,13.88
2018-01-08T10:03:59.726Z,12.98
2018-01-08T10:06:44.741Z,15.43
2018-01-08T10:09:29.772Z,16.58
2018-01-08T10:12:14.866Z,16.05
2018-01-08T10:14:59.732Z,14.35
2018-01-08T10:17:44.707Z,14.00
2018-01-08T10:20:11.516Z,15.68
2018-01-08T10:22:39.088Z,14.70
2018-01-08T10:25:05.874Z,15.20
2018-01-08T10:27:32.803Z,12.60
2018-01-08T10:29:59.628Z,14.70
2018-01-08T10:32:26.484Z,18.10
2018-01-08T10:34:54.072Z,15.50
2018-01-08T10:37:20.923Z,14.98
2018-01-08T10:39:47.754Z,13.60
2018-01-08T10:42:20.639Z,13.20
2018-01-08T10:44:54.286Z,14.85
2018-01-08T10:47:27.277Z,14.87
2018-01-08T10:50:00.136Z,14.82
2018-01-08T10:52:27.658Z,14.77
2018-01-08T10:55:01.372Z,17.52
2018-01-08T10:57:28.225Z,16.73
2018-01-08T10:59:55.089Z,16.10
2018-01-08T11:02:28.149Z,16.20
2018-01-08T11:04:54.920Z,15.02
2018-01-08T11:07:21.686Z,14.35
2018-01-08T11:09:48.493Z,14.65
2018-01-08T11:12:15.352Z,15.38
2018-01-08T11:14:42.315Z,16.23
2018-01-08T11:17:09.155Z,19.55
2018-01-08T11:19:35.979Z,15.75
2018-01-08T11:22:03.624Z,17.45
2018-01-08T11:24:30.456Z,16.30
2018-01-08T11:26:57.300Z,15.77
2018-01-08T11:29:24.895Z,12.20
2018-01-08T11:31:51.757Z,16.70
2018-01-08T11:34:18.574Z,15.82
2018-01-08T11:36:45.420Z,15.48
2018-01-08T11:39:12.300Z,14.50
2018-01-08T11:41:39.149Z,15.57
2018-01-08T11:44:06.027Z,15.60
2018-01-08T11:46:32.880Z,13.80
2018-01-08T11:48:59.741Z,15.40
2018-01-08T11:54:00.463Z,14.95
2018-01-08T11:56:37.248Z,12.43
2018-01-08T11:59:04.120Z,17.47
2018-01-08T12:01:31.135Z,14.15
2018-01-08T12:03:58.005Z,14.98
2018-01-08T12:06:24.948Z,15.85
2018-01-08T12:08:51.799Z,14.70
2018-01-08T12:11:18.648Z,14.50
2018-01-08T12:13:46.446Z,14.80
2018-01-08T12:16:13.315Z,14.73
2018-01-08T12:18:40.775Z,16.63
2018-01-08T12:21:10.786Z,13.60
2018-01-08T12:23:38.550Z,13.50
2018-01-08T12:26:06.175Z,14.37
2018-01-08T12:28:33.067Z,15.57
2018-01-08T12:30:59.889Z,16.87
2018-01-08T12:33:27.616Z,14.70
2018-01-08T12:35:54.518Z,14.67
2018-01-08T12:38:21.393Z,15.03
2018-01-08T12:40:50.669Z,14.30
2018-01-08T12:43:17.903Z,15.07
2018-01-08T12:45:47.770Z,17.63
2018-01-08T12:48:17.838Z,14.43
2018-01-08T12:50:45.925Z,16.83
2018-01-08T12:53:14.641Z,13.80
2018-01-08T12:55:41.556Z,14.17
2018-01-08T12:58:11.849Z,15.00
2018-01-08T13:00:39.622Z,14.23
2018-01-08T13:03:06.849Z,16.30
2018-01-08T13:24:37.978Z,13.68
2018-01-08T13:27:47.518Z,14.85
2018-01-08T13:30:28.952Z,16.95
2018-01-08T13:42:37.064Z,18.20
2018-01-08T13:47:44.544Z,17.42
2018-01-08T13:50:15.553Z,20.73
2018-01-08T14:20:46.839Z,18.98
2018-01-08T14:23:14.986Z,20.83
2018-01-08T14:25:42.006Z,18.08
2018-01-08T14:28:09.049Z,17.80
2018-01-08T14:30:38.015Z,17.10
2018-01-08T14:33:05.076Z,20.42
2018-01-08T14:35:35.379Z,18.35
2018-01-08T14:38:04.746Z,17.10
2018-01-08T14:40:36.250Z,17.70
2018-01-08T14:43:03.222Z,14.52
2018-01-08T14:45:31.980Z,19.98
2018-01-08T14:48:00.180Z,20.83
2018-01-08T14:50:27.155Z,17.52
2018-01-08T14:52:57.537Z,21.08
2018-01-08T14:55:24.810Z,19.20
2018-01-08T14:57:51.718Z,18.08
2018-01-08T15:00:18.682Z,18.67
2018-01-08T15:02:45.704Z,19.83
2018-01-08T15:05:13.570Z,18.10
2018-01-08T15:07:41.467Z,19.37
2018-01-08T15:10:08.454Z,18.85
2018-01-08T15:12:35.379Z,20.77
2018-01-08T15:15:03.090Z,19.90
2018-01-08T15:17:30.028Z,17.90
2018-01-08T15:19:57.085Z,20.15
2018-01-08T15:22:26.729Z,21.48
2018-01-08T15:24:53.839Z,21.05
2018-01-08T15:27:20.674Z,20.77
2018-01-08T15:29:48.263Z,19.95
2018-01-08T15:32:15.202Z,19.48
2018-01-08T15:34:43.345Z,18.83
2018-01-08T15:37:10.283Z,18.02
2018-01-08T15:39:37.334Z,13.95
2018-01-08T15:42:07.617Z,19.05
2018-01-08T15:44:34.570Z,19.73
2018-01-08T15:47:01.613Z,19.27
2018-01-08T15:49:28.472Z,16.27
2018-01-08T15:51:56.058Z,16.05
2018-01-08T15:54:22.894Z,20.48
2018-01-08T15:56:49.780Z,14.15
2018-01-08T15:59:17.644Z,19.10
2018-01-08T16:01:44.519Z,17.80
2018-01-08T16:04:12.373Z,16.23
2018-01-08T16:06:41.498Z,18.15
2018-01-08T16:09:08.601Z,19.37
2018-01-08T16:11:36.371Z,19.33
2018-01-08T16:14:03.451Z,25.60
2018-01-08T16:16:30.313Z,21.00
2018-01-08T16:18:57.266Z,20.67
2018-01-08T16:21:30.296Z,18.35
2018-01-08T16:24:03.627Z,16.77
2018-01-08T16:26:32.017Z,19.75
2018-01-08T16:28:58.998Z,23.58
2018-01-08T16:31:26.606Z,19.27
2018-01-08T16:33:53.462Z,24.58
2018-01-08T16:36:22.346Z,23.10
2018-01-08T16:38:55.201Z,22.02
2018-01-08T16:41:25.470Z,22.23
2018-01-08T16:43:52.544Z,20.42
2018-01-08T16:46:19.603Z,23.55
2018-01-08T16:48:47.908Z,21.87
2018-01-08T16:51:14.802Z,24.25
2018-01-08T16:53:41.681Z,29.95
2018-01-08T16:56:08.527Z,20.73
2018-01-08T16:58:36.160Z,26.35
2018-01-08T17:01:03.924Z,22.05
2018-01-08T17:03:30.940Z,27.62
2018-01-08T17:05:57.756Z,24.37
2018-01-08T17:08:28.827Z,23.02
2018-01-08T17:10:56.429Z,21.08
2018-01-08T17:45:53.962Z,29.27
2018-01-08T17:48:21.190Z,25.40
2018-01-08T17:50:48.225Z,36.40
2018-01-08T18:31:40.711Z,51.20
2018-01-08T18:34:08.271Z,30.88
2018-01-08T18:36:35.086Z,36.08
2018-01-08T18:39:04.609Z,44.85
2018-01-08T18:41:31.402Z,33.40
2018-01-08T18:43:59.002Z,63.42
2018-01-08T18:46:25.811Z,34.85
2018-01-08T18:48:52.890Z,37.30
2018-01-08T18:51:22.050Z,36.05
2018-01-08T18:53:50.665Z,41.97
2018-01-08T18:56:19.253Z,34.28
2018-01-08T18:58:48.389Z,32.95
2018-01-08T19:01:15.236Z,33.30
2018-01-08T19:03:42.582Z,34.70
2018-01-08T19:06:10.885Z,38.60
2018-01-08T19:08:39.389Z,42.97
2018-01-08T19:11:07.406Z,38.53
2018-01-08T19:13:34.442Z,39.75
2018-01-08T19:16:03.161Z,40.80
2018-01-08T19:18:32.009Z,38.53
2018-01-08T19:21:00.987Z,39.03
2018-01-08T19:23:28.066Z,34.70
2018-01-08T19:25:56.142Z,34.95
2018-01-08T19:28:25.057Z,34.17
2018-01-08T19:30:53.154Z,35.83
2018-01-08T19:33:23.577Z,32.58
2018-01-08T19:35:52.970Z,37.40
2018-01-08T19:38:22.333Z,39.45
2018-01-08T19:40:50.966Z,35.67
2018-01-08T19:43:19.713Z,32.97
2018-01-08T19:45:48.157Z,40.10
2018-01-08T19:48:16.504Z,35.50
2018-01-08T19:50:45.015Z,40.95
2018-01-08T19:53:15.205Z,36.00
2018-01-08T19:55:44.203Z,32.13
2018-01-08T19:58:14.384Z,32.97
2018-01-08T20:00:42.729Z,33.75
2018-01-08T20:03:12.009Z,40.60
2018-01-08T20:05:39.443Z,38.38
2018-01-08T20:08:07.486Z,39.20
2018-01-08T20:10:34.408Z,39.35
2018-01-08T20:13:02.920Z,37.70
2018-01-08T20:15:31.545Z,42.97
2018-01-08T20:18:01.180Z,38.10
2018-01-08T20:20:31.362Z,34.92
2018-01-08T20:23:00.443Z,42.03
2018-01-08T20:25:28.475Z,40.63
2018-01-08T20:27:56.527Z,36.55
2018-01-08T20:30:24.923Z,34.55
2018-01-08T20:32:53.573Z,36.22
2018-01-08T20:35:22.440Z,36.47
2018-01-08T20:37:51.357Z,39.55
2018-01-08T20:40:19.985Z,40.22
2018-01-08T20:42:48.745Z,40.50
2018-01-08T20:45:17.543Z,136.45
2018-01-08T20:47:44.588Z,74.70
2018-01-08T20:50:12.340Z,41.47
2018-01-08T20:52:39.309Z,63.40
2018-01-08T20:55:06.181Z,47.28
2018-01-08T20:57:33.168Z,45.53
2018-01-08T21:00:00.574Z,37.47
2018-01-08T21:02:28.193Z,36.08
2018-01-08T21:04:55.073Z,40.15
2018-01-08T21:07:21.855Z,40.72
2018-01-08T21:09:48.704Z,35.13
2018-01-08T21:12:15.710Z,39.78
2018-01-08T21:14:42.539Z,37.03
2018-01-08T21:17:09.408Z,33.72
2018-01-08T21:19:36.282Z,41.33
2018-01-08T21:22:04.343Z,42.00
2018-01-08T21:24:32.105Z,44.15
2018-01-08T21:26:59.261Z,39.17
2018-01-08T21:29:26.479Z,39.10
2018-01-08T21:31:53.345Z,40.08
2018-01-08T21:34:20.147Z,38.50
2018-01-08T21:36:46.974Z,40.28
2018-01-08T21:39:13.843Z,39.83
2018-01-08T21:41:40.813Z,40.15
2018-01-08T21:44:08.359Z,34.38
2018-01-08T21:46:35.170Z,34.00
2018-01-08T21:49:01.972Z,34.70
2018-01-08T21:51:28.778Z,35.92
2018-01-08T21:53:56.405Z,35.63
2018-01-08T21:56:23.222Z,37.47
2018-01-08T21:58:50.784Z,29.80
2018-01-08T22:01:17.615Z,35.40
2018-01-08T22:03:44.439Z,36.15
2018-01-08T22:06:11.375Z,37.08
2018-01-08T22:08:38.236Z,31.33
2018-01-08T22:11:05.043Z,33.00
2018-01-08T22:13:31.839Z,32.05
2018-01-08T22:15:58.804Z,33.38
2018-01-08T22:18:25.805Z,37.90
2018-01-08T22:20:52.842Z,30.65
2018-01-08T22:23:20.406Z,30.10
2018-01-08T22:25:47.403Z,33.35
2018-01-08T22:28:14.642Z,34.50
2018-01-08T22:30:43.092Z,31.58
2018-01-08T22:33:09.908Z,33.05
2018-01-08T22:35:36.781Z,29.90
2018-01-08T22:38:03.544Z,34.67
2018-01-08T22:40:31.152Z,33.00
2018-01-08T22:42:57.980Z,31.60
2018-01-08T22:51:25.208Z,31.20
2018-01-08T22:53:51.978Z,29.67
2018-01-08T22:56:18.818Z,32.85
2018-01-08T22:58:46.379Z,32.70
2018-01-08T23:01:13.174Z,31.20
2018-01-08T23:03:39.988Z,37.38
2018-01-08T23:06:06.844Z,36.97
2018-01-08T23:08:33.646Z,40.65
2018-01-08T23:11:01.139Z,38.38
2018-01-08T23:13:27.940Z,33.15
2018-01-08T23:15:54.769Z,35.75
2018-01-08T23:18:21.655Z,36.35
2018-01-08T23:20:48.470Z,32.83
2018-01-08T23:23:15.349Z,29.52
2018-01-08T23:25:42.149Z,33.90
2018-01-08T23:28:09.140Z,34.15
2018-01-08T23:30:37.699Z,34.13
2018-01-08T23:33:04.463Z,37.72
2018-01-08T23:35:31.675Z,38.00
2018-01-08T23:41:01.923Z,35.30
2018-01-08T23:43:29.649Z,34.33
2018-01-08T23:48:57.656Z,34.00
2018-01-08T23:54:29.183Z,41.90
2018-01-08T23:56:56.003Z,44.25
2018-01-08T23:59:22.874Z,42.55
